Time;durP1;ratioP1;P1;durP2;ratioP2;P2;SDS_P1;SDS_P2;PMS_P1;PMS_P2;Temp;Humidity;BMP_temperature;BMP_pressure;BME280_temperature;BME280_humidity;BME280_pressure;Samples;Min_cycle;Max_cycle;Signal;HPM_P1;HPM_P2
2023/09/03 00:00:54;;;;;;;46.08;24.25;;;;;;;;;;5007545;28;20498;-77
2023/09/03 00:03:20;;;;;;;52.50;25.55;;;;;;;;;;4974599;28;20109;-75
2023/09/03 00:05:50;;;;;;;47.33;25.15;;;;;;;;;;5015259;28;20037;-76
2023/09/03 00:08:16;;;;;;;66.78;32.38;;;;;;;;;;5022012;28;20172;-78
2023/09/03 00:10:42;;;;;;;61.30;30.10;;;;;;;;;;5023873;28;20037;-75
2023/09/03 00:13:09;;;;;;;49.55;27.17;;;;;;;;;;5025264;28;20038;-77
2023/09/03 00:15:39;;;;;;;58.72;29.63;;;;;;;;;;5005600;28;20049;-76
2023/09/03 00:18:06;;;;;;;52.97;27.77;;;;;;;;;;5013502;28;20045;-76
2023/09/03 00:20:32;;;;;;;50.65;25.50;;;;;;;;;;5019249;28;20038;-75
2023/09/03 00:22:58;;;;;;;49.35;25.92;;;;;;;;;;5013699;28;20030;-77
2023/09/03 00:25:25;;;;;;;46.30;26.13;;;;;;;;;;4998192;28;20017;-76
2023/09/03 00:27:51;;;;;;;49.15;27.00;;;;;;;;;;5024923;28;20640;-76
2023/09/03 00:30:17;;;;;;;51.78;27.58;;;;;;;;;;4983117;28;20033;-76
2023/09/03 00:32:43;;;;;;;47.40;25.98;;;;;;;;;;5002073;28;20193;-74
2023/09/03 00:35:09;;;;;;;46.20;26.08;;;;;;;;;;5000443;28;20116;-76
2023/09/03 00:37:36;;;;;;;56.42;26.95;;;;;;;;;;5029911;28;20435;-76
2023/09/03 00:40:02;;;;;;;50.42;26.40;;;;;;;;;;5006724;28;20115;-76
2023/09/03 00:42:29;;;;;;;56.33;28.65;;;;;;;;;;5010988;28;20037;-76
2023/09/03 00:44:55;;;;;;;54.58;27.75;;;;;;;;;;4993783;28;20113;-77
2023/09/03 00:47:22;;;;;;;50.22;26.75;;;;;;;;;;5022835;28;20498;-77
2023/09/03 00:49:48;;;;;;;59.38;28.45;;;;;;;;;;4992321;28;20036;-76
2023/09/03 00:52:18;;;;;;;59.42;26.88;;;;;;;;;;5020215;28;20041;-76
2023/09/03 00:54:44;;;;;;;49.80;26.07;;;;;;;;;;5001995;28;20446;-75
2023/09/03 00:57:11;;;;;;;53.92;25.67;;;;;;;;;;5008971;28;20122;-76
2023/09/03 00:59:38;;;;;;;49.22;24.33;;;;;;;;;;5003753;28;20113;-76
2023/09/03 01:02:04;;;;;;;55.50;25.40;;;;;;;;;;5003144;28;20049;-77
2023/09/03 01:04:31;;;;;;;53.50;24.58;;;;;;;;;;4994587;28;20106;-75
2023/09/03 01:06:58;;;;;;;49.58;24.65;;;;;;;;;;5007978;28;20076;-75
2023/09/03 01:09:24;;;;;;;50.85;25.15;;;;;;;;;;5005338;28;20036;-74
2023/09/03 01:11:58;;;;;;;51.28;26.17;;;;;;;;;;5004326;28;20325;-75
2023/09/03 01:14:27;;;;;;;59.75;25.70;;;;;;;;;;4995427;28;20044;-76
2023/09/03 01:16:56;;;;;;;51.13;25.40;;;;;;;;;;5029225;28;20032;-75
2023/09/03 01:19:42;;;;;;;49.40;23.88;;;;;;;;;;4998295;28;20022;-76
2023/09/03 01:22:27;;;;;;;38.28;21.30;;;;;;;;;;5000331;28;20030;-76
2023/09/03 01:25:08;;;;;;;41.92;20.80;;;;;;;;;;5013706;28;20411;-76
2023/09/03 01:27:37;;;;;;;46.60;21.73;;;;;;;;;;5003523;28;20039;-77
2023/09/03 01:30:04;;;;;;;44.88;22.92;;;;;;;;;;5003575;28;20113;-77
2023/09/03 01:32:30;;;;;;;57.30;25.83;;;;;;;;;;4997188;28;20044;-76
2023/09/03 01:34:57;;;;;;;46.00;23.75;;;;;;;;;;4991207;28;20045;-76
2023/09/03 01:37:24;;;;;;;58.80;26.35;;;;;;;;;;5022609;28;20152;-76
2023/09/03 01:39:50;;;;;;;65.40;29.92;;;;;;;;;;5003419;28;20044;-74
2023/09/03 01:42:16;;;;;;;58.20;27.15;;;;;;;;;;5018879;28;20030;-76
2023/09/03 01:44:42;;;;;;;60.50;26.85;;;;;;;;;;4999003;28;20033;-76
2023/09/03 01:47:32;;;;;;;52.60;25.85;;;;;;;;;;4982976;28;20135;-76
2023/09/03 01:50:08;;;;;;;55.58;26.58;;;;;;;;;;5013805;28;20031;-77
2023/09/03 01:52:46;;;;;;;73.28;29.48;;;;;;;;;;5023150;28;20022;-77
2023/09/03 01:55:15;;;;;;;81.35;30.00;;;;;;;;;;5017903;28;20054;-77
2023/09/03 01:57:42;;;;;;;68.45;29.27;;;;;;;;;;5004128;28;20132;-76
2023/09/03 02:00:11;;;;;;;67.55;28.63;;;;;;;;;;4987701;28;20035;-77
2023/09/03 02:02:42;;;;;;;74.85;28.67;;;;;;;;;;5015021;28;20033;-75
2023/09/03 02:05:08;;;;;;;62.30;26.67;;;;;;;;;;5012953;28;20040;-76
2023/09/03 02:07:35;;;;;;;60.85;26.58;;;;;;;;;;4999605;28;20029;-76
2023/09/03 02:10:01;;;;;;;45.35;23.20;;;;;;;;;;5020025;28;20029;-76
2023/09/03 02:12:27;;;;;;;59.80;25.08;;;;;;;;;;5007161;28;20088;-76
2023/09/03 02:14:53;;;;;;;53.40;25.60;;;;;;;;;;4996186;28;20033;-75
2023/09/03 02:17:20;;;;;;;62.17;26.45;;;;;;;;;;5016242;28;20049;-77
2023/09/03 02:19:49;;;;;;;59.88;27.08;;;;;;;;;;5017360;28;20037;-77
2023/09/03 02:22:16;;;;;;;68.32;28.05;;;;;;;;;;4995407;28;20040;-77
2023/09/03 02:24:42;;;;;;;66.05;28.38;;;;;;;;;;5002443;28;20542;-77
2023/09/03 02:27:08;;;;;;;65.38;27.58;;;;;;;;;;5001727;28;20033;-76
2023/09/03 02:29:35;;;;;;;63.03;28.58;;;;;;;;;;5017219;28;20034;-76
2023/09/03 02:32:02;;;;;;;63.10;26.52;;;;;;;;;;5005888;28;20798;-77
2023/09/03 02:34:28;;;;;;;57.20;23.52;;;;;;;;;;4992248;28;20052;-76
2023/09/03 02:36:54;;;;;;;74.07;24.13;;;;;;;;;;5018796;28;20168;-77
2023/09/03 02:39:21;;;;;;;59.58;20.05;;;;;;;;;;4995607;28;20036;-76
2023/09/03 02:41:47;;;;;;;130.77;23.67;;;;;;;;;;4995247;28;20036;-75
2023/09/03 02:44:13;;;;;;;85.43;22.30;;;;;;;;;;5010865;28;20040;-78
2023/09/03 02:46:39;;;;;;;77.13;25.13;;;;;;;;;;5015655;28;20049;-76
2023/09/03 02:49:06;;;;;;;65.60;23.60;;;;;;;;;;4990692;28;20127;-77
2023/09/03 02:51:32;;;;;;;59.47;24.73;;;;;;;;;;5008137;28;20028;-78
2023/09/03 02:53:59;;;;;;;61.92;25.02;;;;;;;;;;5017003;28;20029;-75
2023/09/03 02:56:25;;;;;;;62.63;26.17;;;;;;;;;;5019172;28;20495;-77
2023/09/03 02:58:52;;;;;;;59.05;25.85;;;;;;;;;;5008274;28;20021;-76
2023/09/03 03:01:19;;;;;;;70.63;26.50;;;;;;;;;;5002382;28;20120;-77
2023/09/03 03:03:45;;;;;;;64.75;27.63;;;;;;;;;;5000955;28;20120;-75
2023/09/03 03:06:12;;;;;;;79.18;28.73;;;;;;;;;;4994711;28;20037;-76
2023/09/03 03:08:38;;;;;;;67.22;26.23;;;;;;;;;;4983474;28;20030;-77
2023/09/03 03:11:08;;;;;;;58.88;26.08;;;;;;;;;;4997525;28;20040;-77
2023/09/03 03:13:36;;;;;;;60.88;25.17;;;;;;;;;;5003327;28;20025;-75
2023/09/03 03:16:12;;;;;;;54.08;24.48;;;;;;;;;;4992169;28;20124;-76
2023/09/03 03:18:40;;;;;;;49.13;23.67;;;;;;;;;;4998185;28;20104;-77
2023/09/03 03:21:14;;;;;;;52.58;24.20;;;;;;;;;;4977120;28;20034;-77
2023/09/03 03:23:41;;;;;;;66.53;27.05;;;;;;;;;;5007291;28;20026;-76
2023/09/03 03:26:08;;;;;;;70.88;28.95;;;;;;;;;;4993171;28;20038;-77
2023/09/03 03:28:35;;;;;;;78.03;28.90;;;;;;;;;;5023923;28;20176;-76
2023/09/03 03:31:10;;;;;;;77.25;28.00;;;;;;;;;;5013019;28;20540;-78
2023/09/03 03:33:37;;;;;;;69.25;26.33;;;;;;;;;;4994387;28;20038;-77
2023/09/03 03:36:03;;;;;;;71.53;27.70;;;;;;;;;;4995076;28;20495;-77
2023/09/03 03:38:30;;;;;;;78.47;29.20;;;;;;;;;;5004466;28;20045;-77
2023/09/03 03:41:06;;;;;;;73.38;26.60;;;;;;;;;;4994712;28;20033;-76
2023/09/03 03:43:32;;;;;;;62.95;27.90;;;;;;;;;;5017608;28;20036;-74
2023/09/03 03:45:58;;;;;;;76.10;27.08;;;;;;;;;;5011013;28;20099;-76
2023/09/03 03:48:25;;;;;;;78.95;28.05;;;;;;;;;;4978004;28;20164;-75
2023/09/03 03:50:57;;;;;;;69.82;26.95;;;;;;;;;;4983424;28;20037;-77
2023/09/03 03:53:25;;;;;;;67.90;27.08;;;;;;;;;;4987924;28;20025;-77
2023/09/03 03:56:04;;;;;;;66.28;25.92;;;;;;;;;;4980481;28;20045;-74
2023/09/03 03:58:33;;;;;;;62.50;25.15;;;;;;;;;;4988563;28;20386;-75
2023/09/03 04:00:59;;;;;;;63.78;25.65;;;;;;;;;;4994899;28;20034;-77
2023/09/03 04:03:28;;;;;;;67.97;25.75;;;;;;;;;;5019637;28;20506;-77
2023/09/03 04:06:01;;;;;;;70.40;25.38;;;;;;;;;;4994297;28;20040;-80
2023/09/03 04:08:31;;;;;;;67.10;24.83;;;;;;;;;;5012541;28;20038;-78
2023/09/03 04:10:57;;;;;;;68.22;24.80;;;;;;;;;;5012047;28;20064;-79
2023/09/03 04:13:24;;;;;;;57.70;23.92;;;;;;;;;;4998106;28;20102;-75
2023/09/03 04:15:50;;;;;;;73.22;25.73;;;;;;;;;;5005225;28;20029;-76
2023/09/03 04:18:16;;;;;;;61.25;22.60;;;;;;;;;;4996760;28;20042;-77
2023/09/03 04:20:42;;;;;;;76.05;22.85;;;;;;;;;;4987876;28;20089;-77
2023/09/03 04:23:09;;;;;;;74.75;28.90;;;;;;;;;;4999606;28;20258;-77
2023/09/03 04:25:35;;;;;;;54.33;23.35;;;;;;;;;;4993055;28;20733;-77
2023/09/03 04:28:02;;;;;;;49.95;21.65;;;;;;;;;;4997283;28;20061;-78
2023/09/03 04:30:28;;;;;;;55.90;23.77;;;;;;;;;;4989090;28;20035;-77
2023/09/03 04:32:54;;;;;;;55.22;24.52;;;;;;;;;;4972647;28;20030;-76
2023/09/03 04:35:21;;;;;;;57.78;25.42;;;;;;;;;;4972377;28;20030;-77
2023/09/03 04:37:50;;;;;;;55.72;25.05;;;;;;;;;;4983490;28;20030;-76
2023/09/03 04:40:17;;;;;;;54.67;25.65;;;;;;;;;;4969177;28;20125;-77
2023/09/03 04:42:44;;;;;;;58.63;24.38;;;;;;;;;;4985064;28;20050;-76
2023/09/03 04:45:10;;;;;;;57.15;24.73;;;;;;;;;;4990767;28;20113;-76
2023/09/03 04:47:36;;;;;;;64.28;25.85;;;;;;;;;;4985603;28;20177;-76
2023/09/03 04:50:02;;;;;;;79.15;28.60;;;;;;;;;;4992917;28;20129;-77
2023/09/03 04:52:29;;;;;;;57.50;24.55;;;;;;;;;;4996411;28;20034;-77
2023/09/03 04:54:57;;;;;;;66.13;26.35;;;;;;;;;;4989696;28;20072;-77
2023/09/03 04:57:24;;;;;;;54.97;24.63;;;;;;;;;;4977353;28;20094;-77
2023/09/03 04:59:50;;;;;;;56.70;24.70;;;;;;;;;;4992369;28;20045;-76
2023/09/03 05:02:16;;;;;;;59.72;23.63;;;;;;;;;;5000173;28;20056;-76
2023/09/03 05:04:43;;;;;;;50.92;21.60;;;;;;;;;;4989284;28;20407;-76
2023/09/03 05:07:09;;;;;;;54.25;22.30;;;;;;;;;;4981161;28;20040;-76
2023/09/03 05:09:35;;;;;;;47.70;20.77;;;;;;;;;;4998293;28;20030;-77
2023/09/03 05:12:01;;;;;;;49.65;21.40;;;;;;;;;;4997992;28;20026;-75
2023/09/03 05:14:28;;;;;;;48.67;21.40;;;;;;;;;;4995913;28;20062;-75
2023/09/03 05:16:54;;;;;;;48.28;22.13;;;;;;;;;;5003460;28;20034;-75
2023/09/03 05:19:21;;;;;;;41.33;20.08;;;;;;;;;;4990082;28;20030;-77
2023/09/03 05:21:47;;;;;;;46.90;20.90;;;;;;;;;;4986762;28;20499;-77
2023/09/03 05:24:13;;;;;;;50.58;21.52;;;;;;;;;;5020872;28;20159;-77
2023/09/03 05:26:40;;;;;;;48.50;21.10;;;;;;;;;;5002139;28;20032;-77
2023/09/03 05:29:06;;;;;;;46.55;21.05;;;;;;;;;;4997380;28;20029;-76
2023/09/03 05:31:32;;;;;;;40.47;18.85;;;;;;;;;;4995566;28;20022;-76
2023/09/03 05:34:02;;;;;;;26.48;15.18;;;;;;;;;;5011926;28;20140;-78
2023/09/03 05:36:29;;;;;;;33.35;18.08;;;;;;;;;;4995787;28;20030;-75
2023/09/03 05:38:55;;;;;;;34.40;17.30;;;;;;;;;;5014393;28;20022;-81
2023/09/03 05:41:21;;;;;;;36.35;19.98;;;;;;;;;;5004216;28;20029;-76
2023/09/03 05:43:51;;;;;;;39.20;20.27;;;;;;;;;;4992948;28;20083;-77
2023/09/03 05:46:18;;;;;;;43.45;21.42;;;;;;;;;;5000146;28;20087;-79
2023/09/03 05:48:44;;;;;;;42.08;20.70;;;;;;;;;;5001795;28;20037;-77
2023/09/03 05:51:11;;;;;;;42.75;20.85;;;;;;;;;;4998119;28;20033;-77
2023/09/03 05:53:40;;;;;;;53.63;22.95;;;;;;;;;;5003748;28;20045;-77
2023/09/03 05:56:07;;;;;;;53.13;22.65;;;;;;;;;;5016580;28;20087;-76
2023/09/03 05:58:34;;;;;;;45.40;22.55;;;;;;;;;;5001226;28;20086;-77
2023/09/03 06:01:04;;;;;;;51.92;22.63;;;;;;;;;;4994231;28;20033;-80
2023/09/03 06:03:31;;;;;;;45.77;21.97;;;;;;;;;;4987825;28;20128;-77
2023/09/03 06:06:02;;;;;;;43.35;21.27;;;;;;;;;;5004617;28;20051;-76
2023/09/03 06:08:28;;;;;;;47.72;22.83;;;;;;;;;;4996997;28;20030;-76
2023/09/03 06:10:56;;;;;;;52.42;23.98;;;;;;;;;;5017798;28;20139;-78
2023/09/03 06:13:26;;;;;;;52.15;24.70;;;;;;;;;;5022837;28;20036;-76
2023/09/03 06:15:52;;;;;;;57.53;24.95;;;;;;;;;;5014408;28;20080;-77
2023/09/03 06:18:18;;;;;;;52.22;24.98;;;;;;;;;;5021855;28;20107;-77
2023/09/03 06:20:44;;;;;;;54.05;24.38;;;;;;;;;;5016292;28;20033;-76
2023/09/03 06:23:15;;;;;;;56.08;26.38;;;;;;;;;;5004918;28;20595;-77
2023/09/03 06:25:44;;;;;;;52.50;25.23;;;;;;;;;;5009894;28;20048;-76
2023/09/03 06:28:10;;;;;;;69.60;28.00;;;;;;;;;;5004824;28;20064;-76
2023/09/03 06:30:37;;;;;;;67.40;29.13;;;;;;;;;;5018079;28;20076;-76
2023/09/03 06:33:03;;;;;;;67.40;28.00;;;;;;;;;;5009000;28;20033;-77
2023/09/03 06:35:29;;;;;;;59.28;27.17;;;;;;;;;;5007004;28;20256;-75
2023/09/03 06:37:56;;;;;;;70.50;30.52;;;;;;;;;;5015045;28;20608;-76
2023/09/03 06:40:22;;;;;;;72.72;31.02;;;;;;;;;;4997412;28;20029;-76
2023/09/03 06:42:48;;;;;;;61.42;28.15;;;;;;;;;;4992240;28;20034;-76
2023/09/03 06:45:14;;;;;;;59.20;27.08;;;;;;;;;;4997479;28;20037;-76
2023/09/03 06:47:41;;;;;;;58.25;27.33;;;;;;;;;;5005780;28;20042;-76
2023/09/03 06:50:07;;;;;;;49.90;23.50;;;;;;;;;;5012135;28;20030;-76
2023/09/03 06:52:34;;;;;;;51.22;27.83;;;;;;;;;;5018603;28;20025;-75
2023/09/03 06:55:01;;;;;;;59.97;29.48;;;;;;;;;;4994367;28;20025;-77
2023/09/03 06:57:27;;;;;;;62.42;30.75;;;;;;;;;;5005102;28;20033;-78
2023/09/03 06:59:53;;;;;;;58.03;29.77;;;;;;;;;;5009971;28;20164;-75
2023/09/03 07:02:20;;;;;;;62.90;28.90;;;;;;;;;;5009001;28;20053;-76
2023/09/03 07:04:46;;;;;;;53.63;28.38;;;;;;;;;;5007053;28;20033;-75
2023/09/03 07:07:12;;;;;;;51.65;27.30;;;;;;;;;;5018433;28;20064;-75
2023/09/03 07:09:38;;;;;;;52.00;26.88;;;;;;;;;;5016538;28;20517;-76
2023/09/03 07:12:05;;;;;;;52.03;27.88;;;;;;;;;;5024221;28;20053;-74
2023/09/03 07:14:32;;;;;;;51.88;27.50;;;;;;;;;;5010758;28;20095;-74
2023/09/03 07:16:58;;;;;;;46.25;26.23;;;;;;;;;;5013772;28;20029;-76
2023/09/03 07:19:25;;;;;;;47.58;25.60;;;;;;;;;;4996179;28;20285;-75
2023/09/03 07:21:51;;;;;;;39.72;25.48;;;;;;;;;;5019532;28;20025;-76
2023/09/03 07:24:17;;;;;;;41.53;25.67;;;;;;;;;;5012150;28;20046;-76
2023/09/03 07:26:44;;;;;;;40.45;25.48;;;;;;;;;;5002830;28;20049;-76
2023/09/03 07:29:10;;;;;;;41.80;24.73;;;;;;;;;;5012800;28;20073;-74
2023/09/03 07:31:40;;;;;;;35.67;22.60;;;;;;;;;;5015778;28;20033;-75
2023/09/03 07:34:13;;;;;;;34.05;22.15;;;;;;;;;;5005546;28;20384;-75
2023/09/03 07:36:39;;;;;;;32.63;22.45;;;;;;;;;;5013622;28;20039;-75
2023/09/03 07:39:06;;;;;;;33.75;22.27;;;;;;;;;;5017114;28;20041;-74
2023/09/03 07:41:35;;;;;;;29.92;21.58;;;;;;;;;;5005321;28;20044;-73
2023/09/03 07:44:01;;;;;;;30.85;22.85;;;;;;;;;;4992089;28;20060;-75
2023/09/03 07:46:28;;;;;;;29.42;22.00;;;;;;;;;;5019113;28;20021;-75
2023/09/03 07:48:54;;;;;;;28.70;20.75;;;;;;;;;;5016963;28;20033;-74
2023/09/03 07:51:21;;;;;;;29.73;20.65;;;;;;;;;;4994799;28;20047;-74
2023/09/03 07:53:47;;;;;;;26.90;20.40;;;;;;;;;;5017212;28;20091;-75
2023/09/03 07:56:17;;;;;;;29.23;19.92;;;;;;;;;;5016597;28;20075;-74
2023/09/03 07:58:43;;;;;;;27.55;19.75;;;;;;;;;;5013928;28;20029;-76
2023/09/03 08:01:11;;;;;;;28.33;18.88;;;;;;;;;;4994312;28;20029;-75
2023/09/03 08:03:39;;;;;;;22.77;18.20;;;;;;;;;;4992554;28;20050;-74
2023/09/03 08:06:05;;;;;;;20.35;16.27;;;;;;;;;;5012520;28;20036;-74
2023/09/03 08:08:31;;;;;;;22.85;16.20;;;;;;;;;;4999728;28;20064;-74
2023/09/03 08:10:58;;;;;;;22.20;17.08;;;;;;;;;;5021205;28;20026;-77
2023/09/03 08:13:24;;;;;;;21.48;16.05;;;;;;;;;;4996374;28;20040;-75
2023/09/03 08:15:51;;;;;;;19.63;14.70;;;;;;;;;;5008655;28;20154;-74
2023/09/03 08:18:18;;;;;;;23.70;14.50;;;;;;;;;;5013946;28;20049;-75
2023/09/03 08:20:44;;;;;;;17.70;13.73;;;;;;;;;;5003215;28;20034;-75
2023/09/03 08:23:13;;;;;;;18.27;14.05;;;;;;;;;;5007089;28;20046;-73
2023/09/03 08:25:40;;;;;;;23.73;13.25;;;;;;;;;;5004338;28;20056;-75
2023/09/03 08:28:08;;;;;;;16.73;13.70;;;;;;;;;;4994726;28;20034;-75
2023/09/03 08:30:34;;;;;;;16.83;13.27;;;;;;;;;;4994795;28;20033;-75
2023/09/03 08:33:00;;;;;;;16.27;13.15;;;;;;;;;;4980840;28;20073;-74
2023/09/03 08:35:27;;;;;;;18.90;12.68;;;;;;;;;;5002515;28;20037;-74
2023/09/03 08:37:53;;;;;;;14.52;13.02;;;;;;;;;;5007851;28;20091;-74
2023/09/03 08:40:19;;;;;;;17.52;13.05;;;;;;;;;;5009502;28;20075;-75
2023/09/03 08:42:49;;;;;;;15.63;13.07;;;;;;;;;;4978871;28;20062;-75
2023/09/03 08:45:18;;;;;;;14.90;12.43;;;;;;;;;;4995470;28;20034;-74
2023/09/03 08:47:45;;;;;;;15.75;10.93;;;;;;;;;;5013714;28;20421;-78
2023/09/03 08:50:11;;;;;;;17.00;11.68;;;;;;;;;;5001910;28;20030;-75
2023/09/03 08:52:38;;;;;;;17.02;11.07;;;;;;;;;;4993268;28;20100;-74
2023/09/03 08:55:05;;;;;;;13.82;9.50;;;;;;;;;;4992352;28;20058;-75
2023/09/03 08:57:34;;;;;;;11.68;9.57;;;;;;;;;;4991484;28;20053;-74
2023/09/03 09:00:03;;;;;;;11.73;9.55;;;;;;;;;;5002847;28;20029;-75
2023/09/03 09:02:30;;;;;;;9.10;8.18;;;;;;;;;;5010037;28;20041;-74
2023/09/03 09:04:56;;;;;;;12.05;9.05;;;;;;;;;;4990608;28;20038;-75
2023/09/03 09:07:22;;;;;;;12.23;8.00;;;;;;;;;;5003525;28;20038;-76
2023/09/03 09:09:50;;;;;;;10.45;8.20;;;;;;;;;;5012434;28;20030;-76
2023/09/03 09:12:28;;;;;;;7.28;5.00;;;;;;;;;;5015772;28;20044;-75
2023/09/03 09:14:59;;;;;;;8.40;5.70;;;;;;;;;;5020017;28;20041;-76
2023/09/03 09:17:28;;;;;;;9.15;6.13;;;;;;;;;;4999221;28;20197;-76
2023/09/03 09:19:58;;;;;;;9.18;5.88;;;;;;;;;;5012385;28;20049;-76
2023/09/03 09:22:25;;;;;;;4.43;3.20;;;;;;;;;;5016359;28;20490;-75
2023/09/03 09:24:52;;;;;;;4.95;3.38;;;;;;;;;;5015212;28;20038;-76
2023/09/03 09:27:19;;;;;;;3.90;2.85;;;;;;;;;;5011706;28;20049;-76
2023/09/03 09:29:45;;;;;;;5.35;3.28;;;;;;;;;;4994681;28;20053;-75
2023/09/03 09:32:19;;;;;;;4.30;2.83;;;;;;;;;;5007729;28;20568;-76
2023/09/03 09:34:45;;;;;;;5.03;2.90;;;;;;;;;;5007484;28;20030;-75
2023/09/03 09:37:13;;;;;;;5.05;2.92;;;;;;;;;;4998230;28;20033;-74
2023/09/03 09:39:49;;;;;;;2.20;1.60;;;;;;;;;;5006736;28;20105;-75
2023/09/03 09:42:18;;;;;;;3.55;2.45;;;;;;;;;;4999449;28;20025;-75
2023/09/03 09:44:51;;;;;;;2.33;1.50;;;;;;;;;;4993962;28;20045;-75
2023/09/03 09:47:17;;;;;;;3.45;2.00;;;;;;;;;;5017653;28;20319;-74
2023/09/03 09:49:45;;;;;;;4.88;2.20;;;;;;;;;;5009043;28;20030;-76
2023/09/03 09:52:12;;;;;;;4.32;2.78;;;;;;;;;;5009989;28;20472;-76
2023/09/03 09:54:41;;;;;;;4.55;2.10;;;;;;;;;;5003207;28;20022;-75
2023/09/03 09:57:11;;;;;;;4.07;2.47;;;;;;;;;;4994017;28;20034;-75
2023/09/03 09:59:39;;;;;;;4.32;2.67;;;;;;;;;;5009218;28;20641;-76
2023/09/03 10:02:16;;;;;;;5.75;2.00;;;;;;;;;;4995527;28;20510;-76
2023/09/03 10:04:43;;;;;;;3.00;2.08;;;;;;;;;;5002837;28;20022;-75
2023/09/03 10:07:10;;;;;;;3.85;2.20;;;;;;;;;;4999175;28;20096;-75
2023/09/03 10:09:37;;;;;;;3.10;2.10;;;;;;;;;;4991707;28;20033;-74
2023/09/03 10:12:06;;;;;;;6.20;2.42;;;;;;;;;;4997780;28;20071;-75
2023/09/03 10:14:33;;;;;;;4.43;2.33;;;;;;;;;;5008608;28;20049;-76
2023/09/03 10:17:06;;;;;;;5.07;2.50;;;;;;;;;;5007752;28;20085;-76
2023/09/03 10:19:52;;;;;;;9.20;2.90;;;;;;;;;;5006258;28;20045;-76
2023/09/03 10:22:19;;;;;;;5.53;2.58;;;;;;;;;;5002778;28;20730;-75
2023/09/03 10:24:51;;;;;;;7.25;2.97;;;;;;;;;;5013113;28;20353;-77
2023/09/03 10:27:27;;;;;;;4.75;3.15;;;;;;;;;;5013476;28;20037;-76
2023/09/03 10:29:55;;;;;;;5.03;3.35;;;;;;;;;;5004879;28;20087;-76
2023/09/03 10:32:21;;;;;;;5.65;2.67;;;;;;;;;;5019001;28;20117;-77
2023/09/03 10:34:47;;;;;;;4.97;2.05;;;;;;;;;;5000722;28;20246;-75
2023/09/03 10:37:14;;;;;;;3.83;2.40;;;;;;;;;;5000309;28;20060;-75
2023/09/03 10:39:43;;;;;;;4.72;2.92;;;;;;;;;;4999017;28;20034;-76
2023/09/03 10:42:18;;;;;;;4.43;2.83;;;;;;;;;;5009385;28;20109;-76
2023/09/03 10:44:45;;;;;;;4.28;2.45;;;;;;;;;;5005811;28;20036;-75
2023/09/03 10:47:14;;;;;;;3.63;2.75;;;;;;;;;;5010098;28;20046;-77
2023/09/03 10:49:40;;;;;;;4.55;2.70;;;;;;;;;;5007787;28;20025;-76
2023/09/03 10:52:26;;;;;;;4.75;2.78;;;;;;;;;;5006105;28;20117;-75
2023/09/03 10:55:10;;;;;;;5.18;2.70;;;;;;;;;;4999497;28;20077;-76
2023/09/03 10:57:36;;;;;;;3.15;2.25;;;;;;;;;;5003817;28;20364;-75
2023/09/03 11:00:06;;;;;;;3.35;2.05;;;;;;;;;;5006264;28;20033;-75
2023/09/03 11:02:34;;;;;;;2.72;1.95;;;;;;;;;;4996274;28;20018;-76
2023/09/03 11:05:12;;;;;;;7.20;1.80;;;;;;;;;;5004475;28;20052;-75
2023/09/03 11:07:39;;;;;;;2.50;1.42;;;;;;;;;;5010542;28;20038;-76
2023/09/03 11:10:37;;;;;;;2.13;1.60;;;;;;;;;;4995674;28;20036;-76
2023/09/03 11:13:04;;;;;;;3.10;1.52;;;;;;;;;;4945608;28;20045;-75
2023/09/03 11:15:30;;;;;;;2.92;1.63;;;;;;;;;;4997315;28;20041;-75
2023/09/03 11:17:57;;;;;;;2.63;1.30;;;;;;;;;;5000130;28;20057;-75
2023/09/03 11:20:36;;;;;;;3.45;1.40;;;;;;;;;;5003346;28;20038;-76
2023/09/03 11:23:03;;;;;;;2.95;1.40;;;;;;;;;;4993964;28;20431;-75
2023/09/03 11:25:37;;;;;;;3.25;1.55;;;;;;;;;;4991607;28;20029;-77
2023/09/03 11:28:04;;;;;;;2.42;1.23;;;;;;;;;;5018806;28;20048;-75
2023/09/03 11:30:31;;;;;;;4.28;1.20;;;;;;;;;;5004111;28;20033;-77
2023/09/03 11:32:57;;;;;;;1.98;1.00;;;;;;;;;;5020942;28;20029;-76
2023/09/03 11:35:24;;;;;;;3.42;1.20;;;;;;;;;;5023775;28;20105;-76
2023/09/03 11:37:51;;;;;;;2.22;1.40;;;;;;;;;;5007585;28;20030;-75
2023/09/03 11:40:17;;;;;;;2.70;1.23;;;;;;;;;;5010229;28;20451;-76
2023/09/03 11:42:44;;;;;;;1.52;1.15;;;;;;;;;;4992647;28;20052;-76
2023/09/03 11:45:11;;;;;;;3.67;1.30;;;;;;;;;;5008759;28;20041;-77
2023/09/03 11:47:56;;;;;;;2.15;1.10;;;;;;;;;;4997591;28;20026;-77
2023/09/03 11:50:22;;;;;;;1.80;1.20;;;;;;;;;;4992454;28;20113;-77
2023/09/03 11:52:48;;;;;;;2.47;1.40;;;;;;;;;;5009210;28;20022;-76
2023/09/03 11:55:15;;;;;;;2.63;1.30;;;;;;;;;;5008482;28;20069;-76
2023/09/03 11:57:43;;;;;;;3.72;1.42;;;;;;;;;;5007647;28;20030;-76
2023/09/03 12:00:09;;;;;;;2.47;1.45;;;;;;;;;;5008551;28;20034;-77
2023/09/03 12:02:36;;;;;;;2.20;1.13;;;;;;;;;;5010217;28;20038;-76
2023/09/03 12:05:02;;;;;;;2.22;1.30;;;;;;;;;;5009278;28;20052;-77
2023/09/03 12:07:28;;;;;;;2.20;1.40;;;;;;;;;;4988552;28;20073;-76
2023/09/03 12:09:55;;;;;;;4.43;1.30;;;;;;;;;;5005519;28;20030;-76
2023/09/03 12:12:21;;;;;;;3.03;1.35;;;;;;;;;;4989670;28;20080;-76
2023/09/03 12:14:47;;;;;;;3.28;1.50;;;;;;;;;;5009205;28;20327;-75
2023/09/03 12:17:26;;;;;;;3.25;1.30;;;;;;;;;;4998508;28;20523;-77
2023/09/03 12:19:53;;;;;;;1.85;1.40;;;;;;;;;;5006989;28;20057;-75
2023/09/03 12:22:19;;;;;;;4.68;1.65;;;;;;;;;;5002632;28;20042;-76
2023/09/03 12:24:49;;;;;;;3.25;1.60;;;;;;;;;;4991770;28;20026;-77
2023/09/03 12:27:16;;;;;;;2.00;1.55;;;;;;;;;;5006210;28;20403;-75
2023/09/03 12:29:43;;;;;;;2.75;1.45;;;;;;;;;;5008472;28;20026;-78
2023/09/03 12:32:10;;;;;;;2.63;1.75;;;;;;;;;;4989468;28;20128;-76
2023/09/03 12:34:38;;;;;;;2.80;1.50;;;;;;;;;;4990991;28;20048;-76
2023/09/03 12:37:05;;;;;;;3.85;1.60;;;;;;;;;;5008165;28;20030;-76
2023/09/03 12:39:32;;;;;;;9.35;1.80;;;;;;;;;;5009391;28;20084;-75
2023/09/03 12:41:59;;;;;;;2.03;1.40;;;;;;;;;;5007640;28;20034;-75
2023/09/03 12:44:26;;;;;;;2.42;1.45;;;;;;;;;;5007904;28;20046;-75
2023/09/03 12:46:53;;;;;;;2.22;1.60;;;;;;;;;;5007560;28;20069;-78
2023/09/03 12:49:20;;;;;;;3.72;1.20;;;;;;;;;;4991292;28;20030;-75
2023/09/03 12:51:46;;;;;;;2.17;1.20;;;;;;;;;;4974965;28;20038;-76
2023/09/03 12:54:12;;;;;;;2.42;1.08;;;;;;;;;;4998418;28;20056;-76
2023/09/03 12:56:39;;;;;;;2.47;1.20;;;;;;;;;;4993963;28;20077;-77
2023/09/03 12:59:06;;;;;;;1.70;1.00;;;;;;;;;;5007464;28;20030;-77
2023/09/03 13:01:33;;;;;;;2.72;1.05;;;;;;;;;;5007040;28;20106;-78
2023/09/03 13:03:59;;;;;;;2.92;1.25;;;;;;;;;;4997169;28;20027;-76
2023/09/03 13:06:26;;;;;;;2.40;1.20;;;;;;;;;;5002013;28;20195;-77
2023/09/03 13:08:52;;;;;;;2.47;1.15;;;;;;;;;;4993708;28;20034;-78
2023/09/03 13:11:21;;;;;;;1.80;1.10;;;;;;;;;;5006107;28;20030;-75
2023/09/03 13:13:50;;;;;;;1.42;1.05;;;;;;;;;;4991416;28;20080;-76
2023/09/03 13:16:20;;;;;;;1.80;1.20;;;;;;;;;;4992533;28;20030;-76
2023/09/03 13:18:48;;;;;;;3.03;1.35;;;;;;;;;;5011701;28;20417;-75
2023/09/03 13:21:18;;;;;;;1.95;1.40;;;;;;;;;;5011556;28;20046;-75
2023/09/03 13:23:44;;;;;;;2.25;1.20;;;;;;;;;;4997869;28;20066;-76
2023/09/03 13:26:10;;;;;;;1.90;1.10;;;;;;;;;;4991558;28;20045;-76
2023/09/03 13:28:38;;;;;;;1.95;1.25;;;;;;;;;;4993308;28;20140;-75
2023/09/03 13:31:04;;;;;;;3.28;1.30;;;;;;;;;;5004491;28;20048;-77
2023/09/03 13:33:30;;;;;;;2.25;1.25;;;;;;;;;;5011664;28;20044;-76
2023/09/03 13:35:57;;;;;;;3.70;1.25;;;;;;;;;;5012446;28;20091;-75
2023/09/03 13:38:23;;;;;;;1.92;1.23;;;;;;;;;;5011538;28;20491;-76
2023/09/03 13:40:50;;;;;;;3.17;1.40;;;;;;;;;;5011262;28;20396;-75
2023/09/03 13:43:17;;;;;;;4.00;1.38;;;;;;;;;;4992312;28;20046;-77
2023/09/03 13:45:56;;;;;;;2.70;1.40;;;;;;;;;;4992773;28;20104;-75
2023/09/03 13:48:22;;;;;;;3.10;1.60;;;;;;;;;;4992292;28;20058;-78
2023/09/03 13:50:51;;;;;;;2.45;1.27;;;;;;;;;;4994116;28;20062;-77
2023/09/03 13:53:17;;;;;;;2.67;1.60;;;;;;;;;;5009134;28;20037;-75
2023/09/03 13:55:43;;;;;;;2.03;1.42;;;;;;;;;;5008449;28;20519;-77
2023/09/03 13:58:10;;;;;;;2.55;1.70;;;;;;;;;;5004405;28;20038;-76
2023/09/03 14:00:40;;;;;;;3.22;1.52;;;;;;;;;;4995146;28;20026;-76
2023/09/03 14:03:06;;;;;;;3.88;1.50;;;;;;;;;;5008055;28;20045;-76
2023/09/03 14:05:32;;;;;;;2.20;1.40;;;;;;;;;;4992149;28;20026;-76
2023/09/03 14:07:58;;;;;;;2.72;1.23;;;;;;;;;;4991948;28;20129;-76
2023/09/03 14:10:25;;;;;;;2.45;1.50;;;;;;;;;;4974671;28;20046;-74
2023/09/03 14:12:51;;;;;;;1.70;1.30;;;;;;;;;;4987196;28;20034;-74
2023/09/03 14:15:17;;;;;;;2.85;1.48;;;;;;;;;;5007437;28;20105;-76
2023/09/03 14:17:43;;;;;;;2.53;1.52;;;;;;;;;;4982426;28;20439;-75
2023/09/03 14:20:09;;;;;;;2.78;1.33;;;;;;;;;;5003009;28;20053;-75
2023/09/03 14:22:37;;;;;;;2.63;1.50;;;;;;;;;;4991669;28;20068;-76
2023/09/03 14:25:03;;;;;;;2.40;1.45;;;;;;;;;;5008542;28;20416;-76
2023/09/03 14:27:29;;;;;;;3.00;1.48;;;;;;;;;;4992728;28;20033;-75
2023/09/03 14:29:56;;;;;;;4.85;1.50;;;;;;;;;;4979301;28;20116;-76